Time;durP1;ratioP1;P1;durP2;ratioP2;P2;SDS_P1;SDS_P2;PMS_P1;PMS_P2;Temp;Humidity;BMP_temperature;BMP_pressure;BME280_temperature;BME280_humidity;BME280_pressure;Samples;Min_cycle;Max_cycle;Signal;HPM_P1;HPM_P2
2023/04/06 00:01:36;;;;;;;4.80;3.75;;;-1.50;99.90;;;;;;5045137;28;20086;-30
2023/04/06 00:04:01;;;;;;;6.97;4.35;;;-1.50;99.90;;;;;;5044438;28;20033;-30
2023/04/06 00:06:27;;;;;;;4.13;3.67;;;-1.40;99.90;;;;;;5049831;28;20424;-30
2023/04/06 00:08:53;;;;;;;5.05;3.58;;;-1.30;99.90;;;;;;5039261;28;20483;-30
2023/04/06 00:11:19;;;;;;;3.90;3.58;;;-1.30;99.90;;;;;;5042726;28;20078;-30
2023/04/06 00:17:07;;;;;;;6.07;4.00;;;-1.50;99.90;;;;;;5046112;28;20932;-30
2023/04/06 00:19:33;;;;;;;3.55;3.30;;;-1.60;99.90;;;;;;5038124;28;20037;-30
2023/04/06 00:21:59;;;;;;;4.57;3.53;;;-1.50;99.90;;;;;;5044381;28;20033;-30
2023/04/06 00:24:24;;;;;;;4.20;3.80;;;-1.60;99.90;;;;;;5042899;28;20013;-30
2023/04/06 00:26:50;;;;;;;3.55;2.97;;;-1.60;99.90;;;;;;5038313;28;20029;-30
2023/04/06 00:29:16;;;;;;;4.82;3.88;;;-1.70;99.90;;;;;;5043547;28;20432;-30
2023/04/06 00:31:41;;;;;;;4.07;3.67;;;-1.70;99.90;;;;;;5041833;28;20029;-30
2023/04/06 00:34:07;;;;;;;5.68;3.92;;;-1.50;99.90;;;;;;5047821;28;20033;-30
2023/04/06 00:36:33;;;;;;;3.85;2.83;;;-1.50;99.90;;;;;;5042526;28;20033;-30
2023/04/06 00:38:58;;;;;;;5.78;4.43;;;-1.40;99.90;;;;;;5044434;28;20061;-30
2023/04/06 00:41:24;;;;;;;5.45;3.97;;;-1.40;99.90;;;;;;5042129;28;20056;-29
2023/04/06 00:43:50;;;;;;;6.28;3.88;;;-1.40;99.90;;;;;;5043967;28;20541;-30
2023/04/06 00:46:15;;;;;;;3.92;3.55;;;-1.40;99.90;;;;;;5037411;28;20509;-30
2023/04/06 00:48:41;;;;;;;5.32;4.15;;;-1.40;99.90;;;;;;5043334;28;20147;-30
2023/04/06 00:51:07;;;;;;;3.65;3.30;;;-1.40;99.90;;;;;;5036478;28;20049;-31
2023/04/06 00:53:32;;;;;;;4.13;3.10;;;-1.50;99.90;;;;;;5043900;28;20040;-30
2023/04/06 00:55:58;;;;;;;6.55;3.90;;;-1.50;99.90;;;;;;5042953;28;20083;-30
2023/04/06 00:58:24;;;;;;;4.00;3.67;;;-1.50;99.90;;;;;;5046894;28;20029;-30
2023/04/06 01:00:50;;;;;;;4.38;3.80;;;-1.50;99.90;;;;;;5045428;28;20033;-30
2023/04/06 01:03:16;;;;;;;5.68;4.00;;;-1.50;99.90;;;;;;5039423;28;20550;-30
2023/04/06 01:05:42;;;;;;;8.32;3.80;;;-1.50;99.90;;;;;;5043607;28;20577;-30
2023/04/06 01:08:08;;;;;;;4.20;3.75;;;-1.70;99.90;;;;;;5048754;28;20031;-32
2023/04/06 01:10:34;;;;;;;4.05;3.65;;;-1.70;99.90;;;;;;5040075;28;20025;-30
2023/04/06 01:13:00;;;;;;;4.22;3.55;;;-1.70;99.90;;;;;;5040802;28;20099;-29
2023/04/06 01:15:28;;;;;;;5.28;3.85;;;-1.80;99.90;;;;;;5041541;28;20079;-31
2023/04/06 01:17:54;;;;;;;4.70;3.60;;;-1.90;99.90;;;;;;5045995;28;20044;-30
2023/04/06 01:20:19;;;;;;;4.28;3.90;;;-1.90;99.90;;;;;;5043648;28;20481;-30
2023/04/06 01:22:45;;;;;;;3.88;3.55;;;-2.00;99.90;;;;;;5047674;28;20063;-31
2023/04/06 01:25:11;;;;;;;6.10;3.38;;;-1.90;99.90;;;;;;5045503;28;20025;-31
2023/04/06 01:27:36;;;;;;;5.28;3.72;;;-1.80;99.90;;;;;;5048924;28;20040;-31
2023/04/06 01:30:02;;;;;;;4.07;3.78;;;-1.80;99.90;;;;;;5050020;28;20033;-30
2023/04/06 01:32:28;;;;;;;5.05;3.38;;;-1.80;99.90;;;;;;5047572;28;20394;-30
2023/04/06 01:34:54;;;;;;;4.47;3.50;;;-1.70;99.90;;;;;;5049762;28;20029;-30
2023/04/06 01:37:20;;;;;;;4.00;3.45;;;-1.70;99.90;;;;;;5046619;28;20505;-30
2023/04/06 01:39:46;;;;;;;5.57;4.15;;;-1.80;99.90;;;;;;5047830;28;20055;-30
2023/04/06 01:42:11;;;;;;;5.80;4.28;;;-1.80;99.90;;;;;;5048458;28;20036;-30
2023/04/06 01:44:37;;;;;;;3.20;2.92;;;-1.80;99.90;;;;;;5050712;28;20026;-31
2023/04/06 01:47:03;;;;;;;5.13;4.72;;;-1.80;99.90;;;;;;5051374;28;20078;-31
2023/04/06 01:49:28;;;;;;;4.10;3.78;;;-1.90;99.90;;;;;;5049567;28;20056;-30
2023/04/06 01:51:54;;;;;;;3.85;3.50;;;-1.90;99.90;;;;;;5045737;28;20053;-30
2023/04/06 01:54:20;;;;;;;9.93;3.95;;;-1.90;99.90;;;;;;5042020;28;20033;-30
2023/04/06 02:00:09;;;;;;;4.50;4.10;;;-2.00;99.90;;;;;;5047615;28;20043;-31
2023/04/06 02:02:35;;;;;;;3.53;3.25;;;-2.00;99.90;;;;;;5048361;28;20604;-30
2023/04/06 02:05:00;;;;;;;4.40;3.83;;;-1.90;99.90;;;;;;5042941;28;20037;-30
2023/04/06 02:07:26;;;;;;;4.63;4.10;;;-2.00;99.90;;;;;;5045003;28;20029;-31
2023/04/06 02:09:55;;;;;;;4.05;3.65;;;-2.00;99.90;;;;;;5048384;28;20052;-31
2023/04/06 02:12:21;;;;;;;4.68;3.95;;;-1.90;99.90;;;;;;5049351;28;20513;-31
2023/04/06 02:14:46;;;;;;;4.30;3.90;;;-2.00;99.90;;;;;;5050518;28;20037;-30
2023/04/06 02:17:12;;;;;;;6.43;3.35;;;-2.00;99.90;;;;;;5052560;28;20040;-30
2023/04/06 02:19:38;;;;;;;5.53;3.67;;;-2.00;99.90;;;;;;5041487;28;20057;-30
2023/04/06 02:22:03;;;;;;;5.57;3.55;;;-2.00;99.90;;;;;;5043620;28;20028;-31
2023/04/06 02:24:29;;;;;;;5.63;4.25;;;-2.00;99.90;;;;;;5049067;28;20036;-31
2023/04/06 02:26:55;;;;;;;4.60;4.10;;;-2.00;99.90;;;;;;5045455;28;20040;-30
2023/04/06 02:29:21;;;;;;;5.88;4.20;;;-2.00;99.90;;;;;;5050098;28;20485;-30
2023/04/06 02:31:46;;;;;;;3.78;3.47;;;-2.00;99.90;;;;;;5043730;28;20022;-30
2023/04/06 02:34:17;;;;;;;7.32;4.60;;;-2.00;99.90;;;;;;5051325;28;20035;-30
2023/04/06 02:36:44;;;;;;;4.05;3.60;;;-2.10;99.90;;;;;;5039938;28;20071;-31
2023/04/06 02:39:10;;;;;;;6.95;4.15;;;-2.10;99.90;;;;;;5048917;28;20021;-30
2023/04/06 02:41:36;;;;;;;9.20;4.45;;;-2.10;99.90;;;;;;5044623;28;20512;-29
2023/04/06 02:44:02;;;;;;;4.95;3.75;;;-2.10;99.90;;;;;;5045244;28;21036;-29
2023/04/06 02:46:28;;;;;;;5.07;3.53;;;-2.10;99.90;;;;;;5044656;28;20045;-30
2023/04/06 02:48:53;;;;;;;4.55;3.88;;;-2.20;99.90;;;;;;5048185;28;20082;-30
2023/04/06 02:51:19;;;;;;;4.97;4.40;;;-2.30;99.90;;;;;;5044797;28;20084;-30
2023/04/06 02:53:45;;;;;;;7.47;3.97;;;-2.30;99.90;;;;;;5046186;28;20677;-31
2023/04/06 02:56:10;;;;;;;4.78;4.28;;;-2.30;99.90;;;;;;5045451;28;20043;-29
2023/04/06 02:58:36;;;;;;;5.40;3.85;;;-2.40;99.90;;;;;;5047240;28;20033;-31
2023/04/06 03:01:03;;;;;;;5.50;4.90;;;-2.40;99.90;;;;;;5043271;28;20357;-30
2023/04/06 03:03:28;;;;;;;9.13;5.68;;;-2.40;99.90;;;;;;5049340;28;20021;-30
2023/04/06 03:05:56;;;;;;;3.90;3.58;;;-2.50;99.90;;;;;;5042645;28;20029;-30
2023/04/06 03:08:21;;;;;;;4.35;3.28;;;-2.50;99.90;;;;;;5047025;28;20389;-30
2023/04/06 03:10:47;;;;;;;4.55;4.15;;;-2.60;99.90;;;;;;5048179;28;20037;-30
2023/04/06 03:13:12;;;;;;;7.38;4.60;;;-2.70;99.90;;;;;;5041041;28;20094;-31
2023/04/06 03:15:38;;;;;;;4.85;4.45;;;-2.80;99.90;;;;;;5049306;28;20043;-30
2023/04/06 03:18:04;;;;;;;7.20;3.65;;;-2.70;99.90;;;;;;5051525;28;20027;-31
2023/04/06 03:20:29;;;;;;;6.40;3.95;;;-2.70;99.90;;;;;;5047591;28;20027;-30
2023/04/06 03:22:55;;;;;;;5.68;3.80;;;-2.60;99.90;;;;;;5049610;28;20097;-30
2023/04/06 03:25:21;;;;;;;6.85;4.25;;;-2.60;99.90;;;;;;5044346;28;20025;-30
2023/04/06 03:27:46;;;;;;;5.47;4.53;;;-2.60;99.90;;;;;;5048070;28;20029;-30
2023/04/06 03:30:12;;;;;;;4.05;3.63;;;-2.60;99.90;;;;;;5043385;28;20297;-30
2023/04/06 03:32:38;;;;;;;5.43;4.18;;;-2.70;99.90;;;;;;5046857;28;20126;-30
2023/04/06 03:35:04;;;;;;;10.10;4.60;;;-2.70;99.90;;;;;;5046269;28;20391;-30
2023/04/06 03:37:30;;;;;;;4.30;3.13;;;-2.60;99.90;;;;;;5045735;28;20520;-30
2023/04/06 03:39:55;;;;;;;3.60;3.22;;;-2.60;99.90;;;;;;5043593;28;20020;-30
2023/04/06 03:42:21;;;;;;;6.63;4.30;;;-2.60;99.90;;;;;;5044478;28;20445;-31
2023/04/06 03:44:47;;;;;;;6.72;4.22;;;-2.70;99.90;;;;;;5045391;28;20021;-30
2023/04/06 03:47:12;;;;;;;5.47;4.60;;;-2.70;99.90;;;;;;5041707;28;20029;-30
2023/04/06 03:49:38;;;;;;;4.43;4.03;;;-2.80;99.90;;;;;;5040249;28;20033;-30
2023/04/06 03:52:04;;;;;;;3.88;3.58;;;-2.80;99.90;;;;;;5046299;28;20091;-30
2023/04/06 03:54:30;;;;;;;4.28;3.97;;;-2.80;99.90;;;;;;5044508;28;20029;-30
2023/04/06 03:56:56;;;;;;;4.82;4.35;;;-2.90;99.90;;;;;;5044896;28;20104;-30
2023/04/06 03:59:21;;;;;;;5.78;3.95;;;-2.90;99.90;;;;;;5048790;28;20474;-30
2023/04/06 04:01:47;;;;;;;4.35;3.95;;;-2.90;99.90;;;;;;5046642;28;20033;-30
2023/04/06 04:04:13;;;;;;;5.15;4.03;;;-2.90;99.90;;;;;;5041209;28;20032;-30
2023/04/06 04:06:38;;;;;;;3.95;3.65;;;-2.90;99.90;;;;;;5044833;28;20029;-30
2023/04/06 04:09:04;;;;;;;4.18;3.88;;;-2.80;99.90;;;;;;5048138;28;20082;-30
2023/04/06 04:11:30;;;;;;;4.85;4.35;;;-2.80;99.90;;;;;;5041320;28;20028;-30
2023/04/06 04:13:55;;;;;;;4.97;3.95;;;-2.90;99.90;;;;;;5042693;28;20040;-30
2023/04/06 04:16:21;;;;;;;23.55;9.40;;;-2.90;99.90;;;;;;5045716;28;20554;-30
2023/04/06 04:18:48;;;;;;;35.35;14.45;;;-2.90;99.90;;;;;;5047729;28;20075;-30
2023/04/06 04:21:14;;;;;;;8.60;7.38;;;-2.90;99.90;;;;;;5042038;28;20040;-30
2023/04/06 04:23:39;;;;;;;8.77;6.05;;;-3.00;99.90;;;;;;5043048;28;20034;-30
2023/04/06 04:26:05;;;;;;;6.80;5.60;;;-3.10;99.90;;;;;;5041893;28;20056;-30
2023/04/06 04:28:31;;;;;;;18.38;11.45;;;-3.00;99.90;;;;;;5045802;28;20105;-30
2023/04/06 04:30:56;;;;;;;16.83;10.63;;;-3.00;99.90;;;;;;5042097;28;20061;-30
2023/04/06 04:33:22;;;;;;;8.48;5.60;;;-3.00;99.90;;;;;;5045927;28;20025;-30
2023/04/06 04:35:48;;;;;;;12.98;7.30;;;-3.10;99.90;;;;;;5048669;28;20029;-32
2023/04/06 04:38:14;;;;;;;5.75;4.75;;;-3.10;99.90;;;;;;5046578;28;20041;-30
2023/04/06 04:40:40;;;;;;;8.60;5.28;;;-3.10;99.90;;;;;;5044873;28;20037;-30
2023/04/06 04:43:06;;;;;;;8.48;5.30;;;-3.10;99.90;;;;;;5042555;28;20036;-30
2023/04/06 04:45:31;;;;;;;16.00;6.85;;;-3.10;99.90;;;;;;5026878;28;20035;-31
2023/04/06 04:47:57;;;;;;;6.85;4.97;;;-3.00;99.90;;;;;;5039434;28;20068;-30
2023/04/06 04:50:22;;;;;;;5.55;5.05;;;-3.10;99.90;;;;;;5046398;28;20045;-30
2023/04/06 04:52:48;;;;;;;7.05;4.68;;;-3.00;99.90;;;;;;5040274;28;20021;-31
2023/04/06 04:55:14;;;;;;;6.40;5.63;;;-3.10;99.90;;;;;;5047974;28;20037;-29
2023/04/06 04:57:40;;;;;;;5.93;4.82;;;-3.10;99.90;;;;;;5040743;28;20034;-29
2023/04/06 05:00:06;;;;;;;7.53;5.28;;;-3.10;99.90;;;;;;5041446;28;20025;-30
2023/04/06 05:02:32;;;;;;;6.93;5.60;;;-3.10;99.90;;;;;;5043568;28;20509;-31
2023/04/06 05:04:57;;;;;;;8.85;5.80;;;-3.10;99.90;;;;;;5044723;28;20029;-30
2023/04/06 05:07:23;;;;;;;6.57;5.18;;;-3.10;99.90;;;;;;5041886;28;20857;-31
2023/04/06 05:09:49;;;;;;;5.22;4.80;;;-3.10;99.90;;;;;;5042679;28;20035;-31
2023/04/06 05:12:15;;;;;;;5.88;4.20;;;-3.10;99.90;;;;;;5047111;28;20695;-31
2023/04/06 05:14:41;;;;;;;10.23;4.28;;;-3.10;99.90;;;;;;5044013;28;20036;-31
2023/04/06 05:17:07;;;;;;;6.00;5.40;;;-3.00;99.90;;;;;;5039396;28;20013;-31
2023/04/06 05:19:32;;;;;;;3.70;3.42;;;-3.00;99.90;;;;;;5045385;28;20070;-31
2023/04/06 05:21:58;;;;;;;3.15;2.92;;;-3.10;99.90;;;;;;5042181;28;20114;-30
2023/04/06 05:24:25;;;;;;;5.13;4.60;;;-3.10;99.90;;;;;;5046430;28;20029;-30
2023/04/06 05:26:51;;;;;;;8.63;4.35;;;-3.10;99.90;;;;;;5042847;28;20025;-30
2023/04/06 05:29:17;;;;;;;6.80;5.32;;;-3.00;99.90;;;;;;5041765;28;20029;-30
2023/04/06 05:31:42;;;;;;;4.68;4.20;;;-3.00;99.90;;;;;;5040974;28;20445;-30
2023/04/06 05:34:09;;;;;;;6.63;4.93;;;-2.90;99.90;;;;;;5040293;28;20051;-30
2023/04/06 05:36:35;;;;;;;5.95;4.18;;;-2.80;99.90;;;;;;5045444;28;20048;-30
2023/04/06 05:39:00;;;;;;;4.38;4.03;;;-2.70;99.90;;;;;;5045781;28;20025;-30
2023/04/06 05:41:26;;;;;;;7.05;4.75;;;-2.60;99.90;;;;;;5043596;28;20493;-30
2023/04/06 05:43:52;;;;;;;4.72;4.32;;;-2.60;99.90;;;;;;5040654;28;20057;-30
2023/04/06 05:46:18;;;;;;;8.25;4.88;;;-2.50;99.90;;;;;;5043714;28;20032;-30
2023/04/06 05:48:44;;;;;;;5.15;4.32;;;-2.50;99.90;;;;;;5045724;28;20537;-32
2023/04/06 05:51:10;;;;;;;8.32;4.50;;;-2.50;99.90;;;;;;5048678;28;20061;-30
2023/04/06 05:53:36;;;;;;;7.45;5.18;;;-2.40;99.90;;;;;;5045951;28;20486;-31
2023/04/06 05:56:02;;;;;;;6.00;3.88;;;-2.40;99.90;;;;;;5044822;28;20391;-29
2023/04/06 05:58:29;;;;;;;10.15;4.57;;;-2.30;99.90;;;;;;5045936;28;20029;-31
2023/04/06 06:00:58;;;;;;;4.78;4.03;;;-2.10;99.90;;;;;;5040555;28;20159;-30
2023/04/06 06:03:24;;;;;;;4.32;3.95;;;-2.10;99.90;;;;;;5044295;28;20032;-30
2023/04/06 06:05:50;;;;;;;7.97;4.15;;;-2.00;99.90;;;;;;5047467;28;20021;-31
2023/04/06 06:08:16;;;;;;;7.25;4.90;;;-2.00;99.90;;;;;;5058170;28;20032;-30
2023/04/06 06:10:41;;;;;;;5.30;4.68;;;-2.00;99.90;;;;;;5048707;28;20157;-30
2023/04/06 06:13:07;;;;;;;6.20;5.47;;;-1.90;99.90;;;;;;5052788;28;20037;-31
2023/04/06 06:15:33;;;;;;;27.10;5.72;;;-1.70;99.90;;;;;;5049342;28;20398;-30
2023/04/06 06:17:58;;;;;;;6.00;4.88;;;-1.60;99.90;;;;;;5052670;28;20032;-31
2023/04/06 06:20:24;;;;;;;5.68;4.22;;;-1.50;99.90;;;;;;5043233;28;20672;-30
2023/04/06 06:22:50;;;;;;;9.25;4.72;;;-1.40;99.90;;;;;;5051931;28;20410;-30
2023/04/06 06:25:16;;;;;;;4.93;4.50;;;-1.30;99.90;;;;;;5047663;28;20025;-31
2023/04/06 06:27:42;;;;;;;9.23;5.90;;;-1.30;99.90;;;;;;5052782;28;20021;-30
2023/04/06 06:30:08;;;;;;;6.30;5.00;;;-1.20;99.90;;;;;;5044609;28;20021;-31
2023/04/06 06:32:34;;;;;;;8.25;5.78;;;-1.20;99.90;;;;;;5045216;28;20037;-30
2023/04/06 06:35:00;;;;;;;5.05;4.60;;;-1.00;99.90;;;;;;5038478;28;20028;-30
2023/04/06 06:37:26;;;;;;;5.03;4.03;;;-0.90;99.90;;;;;;5046756;28;20033;-30
2023/04/06 06:39:51;;;;;;;7.32;5.57;;;-0.80;99.90;;;;;;5047418;28;20025;-30
2023/04/06 06:42:17;;;;;;;7.15;5.63;;;-0.70;99.90;;;;;;5052311;28;20036;-31
2023/04/06 06:44:43;;;;;;;7.20;5.72;;;-0.50;99.90;;;;;;5049506;28;20020;-31
2023/04/06 06:47:09;;;;;;;8.65;5.05;;;-0.40;99.90;;;;;;5047070;28;20033;-31
2023/04/06 06:49:35;;;;;;;4.82;4.43;;;-0.30;99.90;;;;;;5044852;28;20461;-31
2023/04/06 06:52:00;;;;;;;11.00;6.53;;;-0.20;99.90;;;;;;5049735;28;20068;-31
2023/04/06 06:54:26;;;;;;;9.07;6.28;;;-0.10;99.90;;;;;;5046378;28;20460;-31
2023/04/06 06:56:52;;;;;;;9.40;6.30;;;0.10;99.90;;;;;;5044077;28;20021;-34
2023/04/06 06:59:18;;;;;;;9.13;6.60;;;0.30;99.90;;;;;;5040140;28;20486;-30
2023/04/06 07:01:43;;;;;;;5.35;4.03;;;0.40;99.90;;;;;;5061529;28;20437;-31
2023/04/06 07:04:09;;;;;;;6.60;4.25;;;0.50;99.90;;;;;;5047240;28;20075;-30
2023/04/06 07:06:36;;;;;;;9.57;6.40;;;0.60;99.90;;;;;;5050209;28;20033;-31
2023/04/06 07:09:05;;;;;;;8.63;6.13;;;0.60;99.90;;;;;;5045162;28;20029;-31
2023/04/06 07:11:31;;;;;;;11.05;6.55;;;0.80;99.90;;;;;;5060552;28;20352;-30
2023/04/06 07:13:56;;;;;;;15.07;6.70;;;1.00;99.90;;;;;;5047730;28;20115;-31
2023/04/06 07:16:22;;;;;;;10.20;6.10;;;1.20;99.90;;;;;;5040445;28;20017;-30
2023/04/06 07:18:47;;;;;;;15.85;5.85;;;1.40;99.90;;;;;;5052523;28;20025;-31
2023/04/06 07:21:13;;;;;;;9.80;6.47;;;1.60;99.90;;;;;;5045936;28;20112;-30
2023/04/06 07:23:39;;;;;;;9.02;5.90;;;1.70;99.90;;;;;;5048144;28;20414;-30
2023/04/06 07:26:05;;;;;;;13.35;6.47;;;1.90;99.90;;;;;;5043147;28;20508;-30
2023/04/06 07:28:31;;;;;;;5.47;4.97;;;2.10;99.90;;;;;;5049926;28;20029;-30
2023/04/06 07:30:56;;;;;;;8.63;5.72;;;2.10;99.90;;;;;;5053036;28;20402;-30
2023/04/06 07:33:22;;;;;;;10.32;6.25;;;2.30;99.90;;;;;;5043317;28;20064;-30
2023/04/06 07:35:48;;;;;;;6.43;5.82;;;2.50;99.90;;;;;;5046783;28;20029;-30
2023/04/06 07:38:14;;;;;;;8.15;6.07;;;2.70;99.90;;;;;;5046543;28;20025;-30
2023/04/06 07:40:40;;;;;;;6.75;5.10;;;2.90;99.90;;;;;;5047971;28;20059;-30
2023/04/06 07:43:05;;;;;;;9.00;5.60;;;2.90;99.90;;;;;;5046244;28;20248;-31
2023/04/06 07:45:31;;;;;;;9.90;5.68;;;3.20;99.90;;;;;;5046168;28;20025;-30
2023/04/06 07:47:57;;;;;;;8.65;5.90;;;3.50;99.90;;;;;;5043232;28;20649;-30
2023/04/06 07:50:23;;;;;;;7.15;5.07;;;3.70;99.90;;;;;;5050176;28;20040;-31
2023/04/06 07:52:48;;;;;;;10.45;6.03;;;3.80;99.90;;;;;;5048377;28;20368;-37
2023/04/06 07:55:14;;;;;;;9.90;5.28;;;4.00;99.90;;;;;;5051916;28;20024;-31
2023/04/06 07:57:40;;;;;;;11.13;6.65;;;4.20;99.90;;;;;;5048409;28;20030;-30
2023/04/06 08:00:06;;;;;;;9.68;5.18;;;4.30;99.30;;;;;;5045355;28;20120;-30
2023/04/06 08:02:35;;;;;;;11.07;6.85;;;4.50;96.60;;;;;;5043610;28;20414;-30
2023/04/06 08:05:00;;;;;;;;;;;4.60;95.20;;;;;;5049821;28;20106;-30
2023/04/06 08:07:26;;;;;;;6.57;4.32;;;4.80;99.70;;;;;;5050662;28;19912;-30
2023/04/06 08:09:52;;;;;;;14.25;6.95;;;5.00;93.70;;;;;;5043895;28;20081;-30
2023/04/06 08:12:18;;;;;;;16.70;7.22;;;5.20;97.00;;;;;;5042900;28;20474;-30
2023/04/06 08:14:43;;;;;;;7.00;4.75;;;5.40;94.00;;;;;;5045985;28;20029;-30
2023/04/06 08:17:09;;;;;;;8.20;6.15;;;5.60;92.40;;;;;;5044477;28;20083;-30
2023/04/06 08:19:35;;;;;;;11.57;6.63;;;5.70;87.60;;;;;;5040667;28;20025;-31
2023/04/06 08:22:00;;;;;;;11.48;6.57;;;5.90;88.20;;;;;;5043159;28;20449;-31
2023/04/06 08:24:26;;;;;;;7.63;6.00;;;5.90;82.00;;;;;;5038711;28;20105;-30
2023/04/06 08:26:52;;;;;;;10.30;7.05;;;6.10;85.40;;;;;;5038972;28;20033;-30
2023/04/06 08:29:18;;;;;;;9.50;6.20;;;6.20;86.20;;;;;;5047747;28;20190;-30
2023/04/06 08:31:46;;;;;;;6.85;4.88;;;6.30;79.10;;;;;;5040478;28;20449;-30
2023/04/06 08:34:12;;;;;;;9.02;5.70;;;6.40;74.00;;;;;;5045853;28;20116;-30
2023/04/06 08:36:37;;;;;;;9.18;5.90;;;6.20;71.90;;;;;;5041143;28;20120;-30
2023/04/06 08:39:03;;;;;;;9.73;6.05;;;6.40;84.40;;;;;;5044469;28;20025;-30
2023/04/06 08:41:29;;;;;;;12.45;6.93;;;6.70;83.20;;;;;;5038358;28;20381;-30
2023/04/06 08:43:58;;;;;;;9.25;6.50;;;6.90;81.30;;;;;;5046551;28;20520;-30
2023/04/06 08:46:30;;;;;;;6.75;5.10;;;7.20;73.50;;;;;;5044641;28;20052;-30
2023/04/06 08:49:07;;;;;;;7.38;5.68;;;7.30;66.90;;;;;;5044948;28;20036;-30
2023/04/06 08:51:37;;;;;;;6.47;4.53;;;7.60;65.50;;;;;;5036777;28;20454;-30
2023/04/06 08:54:03;;;;;;;9.27;6.03;;;7.60;63.60;;;;;;5042793;28;20033;-30
2023/04/06 08:56:28;;;;;;;8.30;5.30;;;7.40;62.90;;;;;;5040847;28;20503;-31
2023/04/06 08:58:55;;;;;;;10.73;5.97;;;7.50;62.80;;;;;;5043456;28;20474;-30
2023/04/06 09:01:25;;;;;;;9.57;4.63;;;7.60;65.30;;;;;;5034621;28;20056;-30
2023/04/06 09:03:53;;;;;;;9.25;5.32;;;7.70;60.50;;;;;;5042322;28;20102;-30
2023/04/06 09:06:18;;;;;;;6.43;4.07;;;7.70;61.60;;;;;;5038875;28;20028;-31
2023/04/06 09:08:44;;;;;;;10.07;6.03;;;7.50;63.30;;;;;;5036653;28;20545;-30
2023/04/06 09:11:10;;;;;;;8.18;5.38;;;7.40;64.70;;;;;;5040182;28;20032;-30
2023/04/06 09:13:54;;;;;;;10.30;6.35;;;7.70;65.00;;;;;;5039321;28;20886;-31
2023/04/06 09:16:20;;;;;;;8.18;6.03;;;8.00;67.10;;;;;;5043993;28;20430;-31
2023/04/06 09:18:46;;;;;;;7.50;4.95;;;8.40;66.80;;;;;;5044059;28;20025;-30
2023/04/06 09:21:12;;;;;;;9.90;6.40;;;8.30;59.50;;;;;;5045046;28;20033;-30
2023/04/06 09:23:39;;;;;;;10.60;7.03;;;8.30;62.00;;;;;;5039156;28;20494;-30
2023/04/06 09:26:09;;;;;;;10.68;5.82;;;8.20;65.50;;;;;;5048175;28;20024;-30
2023/04/06 09:28:53;;;;;;;10.25;5.85;;;8.60;65.80;;;;;;5042919;28;20479;-31
2023/04/06 09:31:23;;;;;;;8.55;5.40;;;8.90;62.10;;;;;;5038180;28;20044;-31
2023/04/06 09:33:51;;;;;;;9.88;6.20;;;8.60;57.90;;;;;;5045337;28;20031;-30
2023/04/06 09:36:18;;;;;;;10.23;6.53;;;8.90;56.90;;;;;;5049485;28;20016;-30
2023/04/06 09:38:57;;;;;;;13.52;6.30;;;9.10;57.50;;;;;;5044469;28;20025;-30
2023/04/06 09:41:24;;;;;;;11.15;6.00;;;9.60;58.50;;;;;;5040202;28;20060;-32
2023/04/06 09:44:03;;;;;;;9.73;5.37;;;9.80;59.10;;;;;;5038634;28;20025;-30
2023/04/06 09:46:33;;;;;;;11.35;6.88;;;9.70;54.50;;;;;;5041720;28;20390;-31
2023/04/06 09:49:01;;;;;;;8.73;5.68;;;9.70;53.90;;;;;;5050051;28;20029;-29
2023/04/06 09:51:35;;;;;;;8.40;5.65;;;9.70;51.20;;;;;;5040713;28;20049;-30
2023/04/06 09:54:03;;;;;;;9.10;5.22;;;9.90;52.70;;;;;;5045740;28;20037;-29
2023/04/06 09:56:39;;;;;;;;;;;9.90;47.90;;;;;;5057132;28;20029;-30
2023/04/06 09:59:12;;;;;;;8.18;5.68;;;10.10;50.90;;;;;;5037888;28;19912;-29
2023/04/06 10:01:39;;;;;;;12.00;6.22;;;10.10;51.90;;;;;;5049416;28;20032;-30
2023/04/06 10:04:08;;;;;;;9.98;5.20;;;10.20;49.80;;;;;;5047471;28;20034;-30
2023/04/06 10:06:35;;;;;;;7.93;6.18;;;10.20;50.00;;;;;;5051855;28;20028;-30
2023/04/06 10:09:04;;;;;;;9.45;6.03;;;10.40;53.20;;;;;;5045783;28;20033;-30
2023/04/06 10:11:30;;;;;;;7.47;5.63;;;10.50;49.20;;;;;;5046589;28;20025;-30
2023/04/06 10:13:57;;;;;;;11.55;6.40;;;10.50;49.70;;;;;;5046610;28;20049;-30
2023/04/06 10:16:24;;;;;;;9.82;6.55;;;10.30;53.40;;;;;;5046813;28;20363;-30
2023/04/06 10:18:56;;;;;;;7.83;5.47;;;10.70;53.30;;;;;;5043781;28;20438;-31
2023/04/06 10:21:26;;;;;;;9.63;6.20;;;10.90;51.20;;;;;;5047578;28;20099;-31
2023/04/06 10:23:57;;;;;;;8.98;5.80;;;10.60;50.60;;;;;;5045308;28;20052;-30
2023/04/06 10:26:23;;;;;;;7.88;4.82;;;10.70;51.80;;;;;;5042032;28;20040;-30
2023/04/06 10:28:50;;;;;;;8.75;5.70;;;10.70;52.10;;;;;;5051450;28;20471;-29
2023/04/06 10:31:27;;;;;;;8.05;5.50;;;10.80;52.70;;;;;;5040649;28;20506;-29
2023/04/06 10:34:03;;;;;;;9.82;5.65;;;11.10;49.70;;;;;;5037881;28;20033;-30
2023/04/06 10:36:33;;;;;;;8.15;5.60;;;10.90;50.40;;;;;;5051521;28;20035;-29
2023/04/06 10:39:03;;;;;;;6.75;5.68;;;11.00;50.70;;;;;;5040320;28;20474;-29
2023/04/06 10:41:34;;;;;;;8.63;5.47;;;11.10;49.40;;;;;;5043880;28;20029;-30
2023/04/06 10:44:01;;;;;;;7.47;5.25;;;11.30;47.60;;;;;;5052202;28;20046;-29
2023/04/06 10:46:29;;;;;;;8.80;5.57;;;11.50;48.80;;;;;;5050307;28;20489;-30
2023/04/06 10:48:55;;;;;;;7.78;4.72;;;11.60;49.30;;;;;;5044905;28;20031;-32
2023/04/06 10:51:28;;;;;;;7.68;5.25;;;11.90;47.20;;;;;;5045037;28;20425;-29
2023/04/06 10:53:55;;;;;;;11.43;6.05;;;12.00;48.10;;;;;;5048680;28;20033;-29
2023/04/06 10:56:26;;;;;;;6.55;4.03;;;12.00;50.70;;;;;;5047371;28;20028;-29
2023/04/06 10:58:55;;;;;;;7.57;4.88;;;11.60;43.90;;;;;;5043721;28;20475;-30
2023/04/06 11:01:24;;;;;;;6.65;5.28;;;11.60;45.10;;;;;;5030748;28;20052;-30
2023/04/06 11:03:52;;;;;;;4.85;3.53;;;11.60;43.70;;;;;;5034636;28;20522;-30
2023/04/06 11:06:19;;;;;;;6.70;4.40;;;11.60;45.40;;;;;;5062562;28;20090;-31
2023/04/06 11:08:45;;;;;;;5.68;4.00;;;11.60;45.10;;;;;;5040055;28;20076;-30
2023/04/06 11:11:16;;;;;;;6.03;4.63;;;11.50;42.80;;;;;;5040881;28;20372;-30
2023/04/06 11:13:56;;;;;;;5.45;4.35;;;11.30;43.20;;;;;;5048613;28;20128;-30
2023/04/06 11:16:30;;;;;;;7.32;5.18;;;11.40;45.70;;;;;;5045595;28;20379;-29
2023/04/06 11:19:00;;;;;;;7.65;5.18;;;11.50;46.60;;;;;;5044860;28;20029;-29
2023/04/06 11:21:33;;;;;;;3.78;3.42;;;11.60;46.80;;;;;;5040848;28;20018;-30
2023/04/06 11:24:15;;;;;;;9.25;5.22;;;11.10;40.80;;;;;;5041271;28;20083;-30
2023/04/06 11:26:44;;;;;;;6.13;4.65;;;11.20;44.80;;;;;;5042961;28;20056;-30
2023/04/06 11:29:10;;;;;;;;;;;11.60;44.80;;;;;;5040172;28;20032;-31
2023/04/06 11:31:57;;;;;;;5.10;3.70;;;11.70;44.30;;;;;;5047308;28;19921;-30
2023/04/06 11:34:24;;;;;;;7.30;4.38;;;11.60;44.00;;;;;;5037707;28;20022;-29
2023/04/06 11:37:02;;;;;;;8.40;5.00;;;11.80;42.40;;;;;;5046644;28;20037;-29
2023/04/06 11:39:29;;;;;;;9.30;4.90;;;11.30;43.20;;;;;;5043026;28;20117;-30
2023/04/06 11:41:58;;;;;;;4.60;3.95;;;11.40;44.70;;;;;;5043462;28;20025;-29
2023/04/06 11:44:39;;;;;;;7.68;5.28;;;11.70;44.90;;;;;;5039898;28;20033;-30
2023/04/06 11:47:10;;;;;;;5.43;3.92;;;11.90;44.00;;;;;;5043691;28;20049;-30
2023/04/06 11:49:47;;;;;;;10.07;5.18;;;12.00;41.40;;;;;;5047374;28;20513;-30
2023/04/06 11:52:27;;;;;;;4.43;3.28;;;12.00;42.70;;;;;;5047247;28;20049;-30
2023/04/06 11:54:56;;;;;;;7.18;4.68;;;11.50;42.30;;;;;;5039666;28;20713;-30
2023/04/06 11:57:25;;;;;;;2.70;2.50;;;11.30;44.80;;;;;;5041169;28;20079;-30
2023/04/06 11:59:52;;;;;;;5.97;4.45;;;11.30;39.80;;;;;;5044019;28;20021;-31
2023/04/06 12:02:18;;;;;;;6.50;4.93;;;11.60;43.90;;;;;;5038732;28;20549;-31
2023/04/06 12:04:44;;;;;;;10.13;5.63;;;11.70;46.30;;;;;;5041232;28;20470;-29
2023/04/06 12:07:10;;;;;;;5.85;4.78;;;11.70;44.70;;;;;;5042417;28;20026;-31
2023/04/06 12:09:36;;;;;;;8.98;4.30;;;11.90;44.30;;;;;;5040038;28;20033;-29
2023/04/06 12:12:02;;;;;;;5.80;3.80;;;11.90;42.20;;;;;;5044781;28;20470;-29
2023/04/06 12:14:30;;;;;;;8.13;4.78;;;12.00;43.80;;;;;;5042856;28;20487;-29
2023/04/06 12:16:57;;;;;;;4.87;4.07;;;12.10;42.30;;;;;;5049489;28;20017;-29
2023/04/06 12:19:25;;;;;;;2.78;2.47;;;12.00;45.90;;;;;;5053750;28;20041;-30
2023/04/06 12:21:54;;;;;;;5.70;4.97;;;11.60;44.20;;;;;;5039226;28;20501;-30
2023/04/06 12:24:20;;;;;;;6.90;5.05;;;11.20;43.10;;;;;;5047408;28;20040;-30
2023/04/06 12:26:46;;;;;;;5.53;5.00;;;11.40;44.00;;;;;;5045127;28;20033;-31
2023/04/06 12:29:13;;;;;;;5.45;4.22;;;11.40;44.90;;;;;;5038704;28;20033;-30
2023/04/06 12:31:40;;;;;;;6.60;4.97;;;11.70;45.00;;;;;;5048156;28;20045;-30
2023/04/06 12:34:07;;;;;;;7.20;4.93;;;11.70;43.70;;;;;;5039907;28;20470;-30
2023/04/06 12:36:32;;;;;;;7.30;4.65;;;12.00;44.40;;;;;;5041792;28;20048;-31
2023/04/06 12:38:58;;;;;;;6.93;4.95;;;12.00;44.00;;;;;;5044541;28;20125;-29
2023/04/06 12:41:24;;;;;;;7.30;5.03;;;11.90;44.10;;;;;;5037879;28;20026;-29
2023/04/06 12:43:50;;;;;;;9.35;5.43;;;12.00;48.80;;;;;;5041893;28;20045;-30
2023/04/06 12:46:16;;;;;;;8.80;4.80;;;12.40;47.50;;;;;;5036631;28;20025;-29
2023/04/06 12:48:42;;;;;;;7.95;5.60;;;12.20;44.10;;;;;;5056841;28;20025;-29
2023/04/06 12:51:08;;;;;;;8.07;4.65;;;12.20;44.40;;;;;;5038621;28;20049;-29
2023/04/06 12:53:34;;;;;;;5.85;3.90;;;11.90;45.40;;;;;;5043479;28;20394;-29